»·PEaware :: N4729L KTOA-KRAL

N4729L :: KTOA-KRAL

FLIGHT INFORMATION

Flight Status: Arrived
Operator: Privately registered:
United States
More flights under this callsign
Pilot: Christopher L. (26542)
Aircraft: CESSNA 172 SKYHAWK
(C172)
More flights by this aircraft type
Origin: KTOA Zamperini
United States
Destination: KRAL Riverside Mun
United States
More flights between these airports :: More routes between these airports
Route: LIMBO V64 SLI V8 PDZ
File this flight plan on PilotEdge
Remarks:
Altitude:
(Current/Filed)
5,000ft
Speed:
(Current/Filed)
120kts
Departed: 14-Oct-19 09:15 PM
Arrived: 14-Oct-19 09:51 PM
Distance/Time
Traveled:
46nm/0:36
Distance/Time
To Go:
Arrived

Flight Plot

Page will automatically refresh every two minutes.


Map Options




Map Legend


Flown Route
Filed Route
Departure Airport
Arrival Airport
Navaid (VOR, NDB)
Fix

Horizontal Profiles

Position Reports

Time Latitude Longitude Heading Altitude Ground
Speed
14-Oct-19 20:51 33.803347 -118.344051 38 102ft 0kts
14-Oct-19 20:52 33.803347 -118.344051 38 102ft 0kts
14-Oct-19 20:53 33.803347 -118.344051 38 102ft 0kts
14-Oct-19 20:54 33.803347 -118.344051 38 102ft 0kts
14-Oct-19 20:55 33.803347 -118.344051 38 102ft 0kts
14-Oct-19 20:56 33.803347 -118.344051 38 102ft 0kts
14-Oct-19 20:57 33.803347 -118.344051 38 102ft 0kts
14-Oct-19 20:58 33.803347 -118.344051 38 102ft 0kts
14-Oct-19 20:59 33.803347 -118.344051 38 102ft 0kts
14-Oct-19 21:00 33.803347 -118.344051 38 102ft 0kts
14-Oct-19 21:01 33.803347 -118.344051 38 102ft 0kts
14-Oct-19 21:02 33.803347 -118.344051 38 102ft 0kts
14-Oct-19 21:03 33.803347 -118.344051 38 102ft 0kts
14-Oct-19 21:04 33.803347 -118.344051 38 102ft 0kts
14-Oct-19 21:05 33.803026 -118.343162 139 103ft 4kts
14-Oct-19 21:06 33.802110 -118.340693 130 102ft 18kts
14-Oct-19 21:07 33.799308 -118.336456 128 104ft 15kts
14-Oct-19 21:08 33.798861 -118.335771 126 105ft 14kts
14-Oct-19 21:09 33.798577 -118.335341 130 105ft 14kts
14-Oct-19 21:10 33.797962 -118.334396 144 106ft 0kts
14-Oct-19 21:11 33.797838 -118.334480 305 106ft 2kts
14-Oct-19 21:12 33.799094 -118.333304 36 101ft 0kts
14-Oct-19 21:13 33.799139 -118.333265 36 100ft 6kts
14-Oct-19 21:14 33.808126 -118.345523 302 626ft 73kts
14-Oct-19 21:15 33.810556 -118.349681 301 839ft 75kts
14-Oct-19 21:16 33.821980 -118.369751 300 1899ft 72kts
14-Oct-19 21:17 33.832788 -118.390146 300 2869ft 73kts
14-Oct-19 21:18 33.834588 -118.410878 205 3753ft 81kts
14-Oct-19 21:19 33.813727 -118.398639 152 4582ft 88kts
14-Oct-19 21:20 33.791566 -118.378657 142 4999ft 124kts
14-Oct-19 21:21 33.762887 -118.351782 140 4973ft 119kts
14-Oct-19 21:22 33.760173 -118.317300 61 4981ft 112kts
14-Oct-19 21:23 33.771600 -118.282609 84 4983ft 128kts
14-Oct-19 21:24 33.773329 -118.238391 85 4981ft 133kts
14-Oct-19 21:25 33.775312 -118.193955 83 4980ft 132kts
14-Oct-19 21:26 33.777787 -118.150004 83 4980ft 131kts
14-Oct-19 21:27 33.780343 -118.106280 84 4980ft 130kts
14-Oct-19 21:28 33.781114 -118.093132 84 4980ft 130kts
14-Oct-19 21:30 33.782905 -118.062575 83 4979ft 130kts
14-Oct-19 21:31 33.792327 -118.020923 71 4977ft 129kts
14-Oct-19 21:32 33.802852 -117.979637 70 4976ft 129kts
14-Oct-19 21:33 33.813520 -117.938319 70 4974ft 129kts
14-Oct-19 21:34 33.821227 -117.900431 44 5164ft 120kts
14-Oct-19 21:35 33.834513 -117.864270 75 4983ft 117kts
14-Oct-19 21:36 33.841716 -117.829464 70 4971ft 100kts
14-Oct-19 21:37 33.849099 -117.797591 70 4974ft 97kts
14-Oct-19 21:38 33.856811 -117.766376 65 4977ft 96kts
14-Oct-19 21:39 33.866037 -117.735828 65 4970ft 97kts
14-Oct-19 21:40 33.874089 -117.704944 68 4967ft 87kts
14-Oct-19 21:41 33.888430 -117.692865 5 5096ft 47kts
14-Oct-19 21:42 33.904043 -117.685108 22 5177ft 66kts
14-Oct-19 21:43 33.923168 -117.672198 12 4500ft 78kts
14-Oct-19 21:44 33.942543 -117.665230 11 3947ft 70kts
14-Oct-19 21:45 33.961299 -117.658186 11 3357ft 71kts
14-Oct-19 21:46 33.979154 -117.650332 35 3006ft 72kts
14-Oct-19 21:47 33.987734 -117.612990 103 2973ft 138kts
14-Oct-19 21:48 33.973007 -117.551620 98 2977ft 141kts
14-Oct-19 21:49 33.960226 -117.485070 101 2158ft 106kts
14-Oct-19 21:49 33.953128 -117.447841 107 774ft 52kts
14-Oct-19 21:51 33.951605 -117.440012 131 801ft 8kts

Navigation Log

Ident Type
Flight plan parsing failed, navigation log unavailable